sensor_id;sensor_type;location;lat;lon;timestamp;P1;durP1;ratioP1;P2;durP2;ratioP2
35877;SDS011;21982;49.804;24.072;2023-08-08T00:02:00;4.90;;;2.00;;
35877;SDS011;21982;49.804;24.072;2023-08-08T00:04:26;6.32;;;2.28;;
35877;SDS011;21982;49.804;24.072;2023-08-08T00:06:51;5.70;;;2.20;;
35877;SDS011;21982;49.804;24.072;2023-08-08T00:09:18;5.13;;;2.33;;
35877;SDS011;21982;49.804;24.072;2023-08-08T00:11:43;6.43;;;2.53;;
35877;SDS011;21982;49.804;24.072;2023-08-08T00:14:09;4.72;;;2.17;;
35877;SDS011;21982;49.804;24.072;2023-08-08T00:16:34;6.07;;;2.40;;
35877;SDS011;21982;49.804;24.072;2023-08-08T00:19:00;5.40;;;2.17;;
35877;SDS011;21982;49.804;24.072;2023-08-08T00:21:25;6.18;;;2.47;;
35877;SDS011;21982;49.804;24.072;2023-08-08T00:23:51;4.97;;;2.47;;
35877;SDS011;21982;49.804;24.072;2023-08-08T00:26:19;8.23;;;2.47;;
35877;SDS011;21982;49.804;24.072;2023-08-08T00:28:44;6.90;;;3.05;;
35877;SDS011;21982;49.804;24.072;2023-08-08T00:31:10;5.13;;;2.17;;
35877;SDS011;21982;49.804;24.072;2023-08-08T00:33:35;6.82;;;2.60;;
35877;SDS011;21982;49.804;24.072;2023-08-08T00:36:00;4.32;;;2.00;;
35877;SDS011;21982;49.804;24.072;2023-08-08T00:38:26;6.78;;;2.33;;
35877;SDS011;21982;49.804;24.072;2023-08-08T00:40:51;5.00;;;2.38;;
35877;SDS011;21982;49.804;24.072;2023-08-08T00:43:17;6.40;;;2.30;;
35877;SDS011;21982;49.804;24.072;2023-08-08T00:45:43;5.20;;;2.15;;
35877;SDS011;21982;49.804;24.072;2023-08-08T00:48:09;4.95;;;1.70;;
35877;SDS011;21982;49.804;24.072;2023-08-08T00:50:36;4.18;;;2.00;;
35877;SDS011;21982;49.804;24.072;2023-08-08T00:53:02;4.60;;;2.03;;
35877;SDS011;21982;49.804;24.072;2023-08-08T00:55:31;4.10;;;1.83;;
35877;SDS011;21982;49.804;24.072;2023-08-08T00:57:56;3.70;;;2.13;;
35877;SDS011;21982;49.804;24.072;2023-08-08T01:00:22;5.38;;;1.85;;
35877;SDS011;21982;49.804;24.072;2023-08-08T01:02:47;3.33;;;1.77;;
35877;SDS011;21982;49.804;24.072;2023-08-08T01:05:13;4.55;;;2.10;;
35877;SDS011;21982;49.804;24.072;2023-08-08T01:07:47;5.05;;;2.20;;
35877;SDS011;21982;49.804;24.072;2023-08-08T01:10:21;4.30;;;2.50;;
35877;SDS011;21982;49.804;24.072;2023-08-08T01:12:51;6.63;;;2.40;;
35877;SDS011;21982;49.804;24.072;2023-08-08T01:15:21;3.35;;;1.70;;
35877;SDS011;21982;49.804;24.072;2023-08-08T01:17:47;5.43;;;2.00;;
35877;SDS011;21982;49.804;24.072;2023-08-08T01:20:14;4.72;;;1.92;;
35877;SDS011;21982;49.804;24.072;2023-08-08T01:25:34;4.72;;;2.25;;
35877;SDS011;21982;49.804;24.072;2023-08-08T01:28:00;3.95;;;2.05;;
35877;SDS011;21982;49.804;24.072;2023-08-08T01:30:25;4.70;;;2.03;;
35877;SDS011;21982;49.804;24.072;2023-08-08T01:32:51;3.42;;;1.98;;
35877;SDS011;21982;49.804;24.072;2023-08-08T01:35:16;3.25;;;1.90;;
35877;SDS011;21982;49.804;24.072;2023-08-08T01:37:48;4.63;;;2.00;;
35877;SDS011;21982;49.804;24.072;2023-08-08T01:40:15;5.85;;;2.03;;
35877;SDS011;21982;49.804;24.072;2023-08-08T01:42:43;4.75;;;2.28;;
35877;SDS011;21982;49.804;24.072;2023-08-08T01:45:11;7.18;;;4.30;;
35877;SDS011;21982;49.804;24.072;2023-08-08T01:47:38;7.50;;;3.33;;
35877;SDS011;21982;49.804;24.072;2023-08-08T01:50:03;4.85;;;2.53;;
35877;SDS011;21982;49.804;24.072;2023-08-08T01:52:29;4.50;;;2.13;;
35877;SDS011;21982;49.804;24.072;2023-08-08T01:54:54;4.10;;;1.65;;
35877;SDS011;21982;49.804;24.072;2023-08-08T01:57:20;4.55;;;1.50;;
35877;SDS011;21982;49.804;24.072;2023-08-08T01:59:47;3.53;;;1.70;;
35877;SDS011;21982;49.804;24.072;2023-08-08T02:02:13;3.72;;;1.73;;
35877;SDS011;21982;49.804;24.072;2023-08-08T02:04:38;3.95;;;1.50;;
35877;SDS011;21982;49.804;24.072;2023-08-08T02:07:04;6.13;;;2.10;;
35877;SDS011;21982;49.804;24.072;2023-08-08T02:09:29;5.18;;;1.98;;
35877;SDS011;21982;49.804;24.072;2023-08-08T02:11:54;4.20;;;2.30;;
35877;SDS011;21982;49.804;24.072;2023-08-08T02:14:20;4.18;;;2.13;;
35877;SDS011;21982;49.804;24.072;2023-08-08T02:16:45;7.55;;;2.70;;
35877;SDS011;21982;49.804;24.072;2023-08-08T02:19:10;7.53;;;2.05;;
35877;SDS011;21982;49.804;24.072;2023-08-08T02:21:36;4.20;;;2.08;;
35877;SDS011;21982;49.804;24.072;2023-08-08T02:24:01;4.47;;;1.83;;
35877;SDS011;21982;49.804;24.072;2023-08-08T02:26:27;3.45;;;1.90;;
35877;SDS011;21982;49.804;24.072;2023-08-08T02:28:52;4.13;;;2.28;;
35877;SDS011;21982;49.804;24.072;2023-08-08T02:31:17;4.50;;;2.08;;
35877;SDS011;21982;49.804;24.072;2023-08-08T02:33:47;5.78;;;2.08;;
35877;SDS011;21982;49.804;24.072;2023-08-08T02:36:14;5.13;;;1.70;;
35877;SDS011;21982;49.804;24.072;2023-08-08T02:38:39;4.40;;;1.65;;
35877;SDS011;21982;49.804;24.072;2023-08-08T02:41:05;4.75;;;2.17;;
35877;SDS011;21982;49.804;24.072;2023-08-08T02:43:30;4.63;;;1.83;;
35877;SDS011;21982;49.804;24.072;2023-08-08T02:45:56;5.25;;;2.00;;
35877;SDS011;21982;49.804;24.072;2023-08-08T02:48:21;3.83;;;1.83;;
35877;SDS011;21982;49.804;24.072;2023-08-08T02:50:46;4.50;;;1.77;;
35877;SDS011;21982;49.804;24.072;2023-08-08T02:53:12;4.43;;;1.85;;
35877;SDS011;21982;49.804;24.072;2023-08-08T02:55:37;4.78;;;1.60;;
35877;SDS011;21982;49.804;24.072;2023-08-08T02:58:02;4.05;;;2.00;;
35877;SDS011;21982;49.804;24.072;2023-08-08T03:00:28;3.95;;;1.70;;
35877;SDS011;21982;49.804;24.072;2023-08-08T03:02:53;4.15;;;2.00;;
35877;SDS011;21982;49.804;24.072;2023-08-08T03:05:19;3.70;;;2.20;;
35877;SDS011;21982;49.804;24.072;2023-08-08T03:07:44;4.13;;;2.25;;
35877;SDS011;21982;49.804;24.072;2023-08-08T03:10:09;6.75;;;3.75;;
35877;SDS011;21982;49.804;24.072;2023-08-08T03:12:35;4.03;;;2.85;;
35877;SDS011;21982;49.804;24.072;2023-08-08T03:15:03;6.55;;;3.38;;
35877;SDS011;21982;49.804;24.072;2023-08-08T03:17:29;6.57;;;2.10;;
35877;SDS011;21982;49.804;24.072;2023-08-08T03:19:54;6.75;;;2.63;;
35877;SDS011;21982;49.804;24.072;2023-08-08T03:22:20;5.72;;;2.47;;
35877;SDS011;21982;49.804;24.072;2023-08-08T03:24:45;6.20;;;3.10;;
35877;SDS011;21982;49.804;24.072;2023-08-08T03:27:11;5.30;;;2.40;;
35877;SDS011;21982;49.804;24.072;2023-08-08T03:29:36;3.47;;;1.98;;
35877;SDS011;21982;49.804;24.072;2023-08-08T03:32:02;5.28;;;2.17;;
35877;SDS011;21982;49.804;24.072;2023-08-08T03:34:29;5.75;;;2.30;;
35877;SDS011;21982;49.804;24.072;2023-08-08T03:36:54;6.72;;;2.08;;
35877;SDS011;21982;49.804;24.072;2023-08-08T03:39:20;6.47;;;3.00;;
35877;SDS011;21982;49.804;24.072;2023-08-08T03:41:48;4.78;;;2.17;;
35877;SDS011;21982;49.804;24.072;2023-08-08T03:44:14;7.38;;;3.45;;
35877;SDS011;21982;49.804;24.072;2023-08-08T03:46:39;5.15;;;1.98;;
35877;SDS011;21982;49.804;24.072;2023-08-08T03:49:05;4.68;;;2.63;;
35877;SDS011;21982;49.804;24.072;2023-08-08T03:51:30;3.38;;;2.03;;
35877;SDS011;21982;49.804;24.072;2023-08-08T03:53:55;3.92;;;2.05;;
35877;SDS011;21982;49.804;24.072;2023-08-08T03:56:21;6.93;;;2.53;;
35877;SDS011;21982;49.804;24.072;2023-08-08T03:58:46;5.43;;;2.97;;
35877;SDS011;21982;49.804;24.072;2023-08-08T04:01:11;4.93;;;2.30;;
35877;SDS011;21982;49.804;24.072;2023-08-08T04:03:37;4.53;;;2.53;;
35877;SDS011;21982;49.804;24.072;2023-08-08T04:06:02;5.35;;;2.90;;
35877;SDS011;21982;49.804;24.072;2023-08-08T04:08:28;9.10;;;3.33;;
35877;SDS011;21982;49.804;24.072;2023-08-08T04:10:53;9.75;;;3.03;;
35877;SDS011;21982;49.804;24.072;2023-08-08T04:13:19;5.95;;;2.42;;
35877;SDS011;21982;49.804;24.072;2023-08-08T04:15:45;5.22;;;2.40;;
35877;SDS011;21982;49.804;24.072;2023-08-08T04:18:10;4.97;;;2.38;;
35877;SDS011;21982;49.804;24.072;2023-08-08T04:20:36;3.65;;;1.92;;
35877;SDS011;21982;49.804;24.072;2023-08-08T04:23:01;5.50;;;2.58;;
35877;SDS011;21982;49.804;24.072;2023-08-08T04:25:27;4.30;;;2.20;;
35877;SDS011;21982;49.804;24.072;2023-08-08T04:27:52;3.05;;;1.85;;
35877;SDS011;21982;49.804;24.072;2023-08-08T04:30:18;5.05;;;2.47;;
35877;SDS011;21982;49.804;24.072;2023-08-08T04:32:44;3.92;;;2.22;;
35877;SDS011;21982;49.804;24.072;2023-08-08T04:35:09;4.57;;;2.03;;
35877;SDS011;21982;49.804;24.072;2023-08-08T04:37:35;10.63;;;2.30;;
35877;SDS011;21982;49.804;24.072;2023-08-08T04:40:00;5.20;;;2.13;;
35877;SDS011;21982;49.804;24.072;2023-08-08T04:42:26;5.60;;;2.67;;
35877;SDS011;21982;49.804;24.072;2023-08-08T04:44:51;4.47;;;1.85;;
35877;SDS011;21982;49.804;24.072;2023-08-08T04:47:16;5.22;;;2.30;;
35877;SDS011;21982;49.804;24.072;2023-08-08T04:49:42;3.70;;;1.85;;
35877;SDS011;21982;49.804;24.072;2023-08-08T04:52:08;4.72;;;2.40;;
35877;SDS011;21982;49.804;24.072;2023-08-08T04:54:33;4.78;;;2.25;;
35877;SDS011;21982;49.804;24.072;2023-08-08T04:56:59;4.70;;;2.35;;
35877;SDS011;21982;49.804;24.072;2023-08-08T04:59:24;5.13;;;2.22;;
35877;SDS011;21982;49.804;24.072;2023-08-08T05:01:49;4.13;;;2.38;;
35877;SDS011;21982;49.804;24.072;2023-08-08T05:04:15;4.85;;;2.25;;
35877;SDS011;21982;49.804;24.072;2023-08-08T05:06:40;3.30;;;1.90;;
35877;SDS011;21982;49.804;24.072;2023-08-08T05:09:06;3.80;;;1.88;;
35877;SDS011;21982;49.804;24.072;2023-08-08T05:11:34;3.92;;;2.33;;
35877;SDS011;21982;49.804;24.072;2023-08-08T05:14:00;3.65;;;1.65;;
35877;SDS011;21982;49.804;24.072;2023-08-08T05:16:25;4.35;;;1.90;;
35877;SDS011;21982;49.804;24.072;2023-08-08T05:18:50;4.97;;;1.83;;
35877;SDS011;21982;49.804;24.072;2023-08-08T05:21:16;4.68;;;2.47;;
35877;SDS011;21982;49.804;24.072;2023-08-08T05:23:41;4.43;;;2.00;;
35877;SDS011;21982;49.804;24.072;2023-08-08T05:26:06;4.40;;;2.05;;
35877;SDS011;21982;49.804;24.072;2023-08-08T05:28:32;6.50;;;2.30;;
35877;SDS011;21982;49.804;24.072;2023-08-08T05:30:57;8.15;;;3.03;;
35877;SDS011;21982;49.804;24.072;2023-08-08T05:33:25;9.65;;;3.30;;
35877;SDS011;21982;49.804;24.072;2023-08-08T05:35:51;7.35;;;2.72;;
35877;SDS011;21982;49.804;24.072;2023-08-08T05:38:17;6.47;;;2.20;;
35877;SDS011;21982;49.804;24.072;2023-08-08T05:40:42;3.75;;;1.60;;
35877;SDS011;21982;49.804;24.072;2023-08-08T05:43:10;5.35;;;2.42;;
35877;SDS011;21982;49.804;24.072;2023-08-08T05:45:41;5.10;;;2.22;;
35877;SDS011;21982;49.804;24.072;2023-08-08T05:48:07;5.13;;;2.00;;
35877;SDS011;21982;49.804;24.072;2023-08-08T05:50:34;5.22;;;2.25;;
35877;SDS011;21982;49.804;24.072;2023-08-08T05:58:12;6.43;;;2.65;;
35877;SDS011;21982;49.804;24.072;2023-08-08T06:00:39;5.53;;;1.95;;
35877;SDS011;21982;49.804;24.072;2023-08-08T06:03:05;4.72;;;2.05;;
35877;SDS011;21982;49.804;24.072;2023-08-08T06:05:32;6.00;;;2.60;;
35877;SDS011;21982;49.804;24.072;2023-08-08T06:07:58;6.65;;;2.67;;
35877;SDS011;21982;49.804;24.072;2023-08-08T06:10:23;4.70;;;1.92;;
35877;SDS011;21982;49.804;24.072;2023-08-08T06:12:50;8.07;;;3.65;;
35877;SDS011;21982;49.804;24.072;2023-08-08T06:15:15;5.63;;;2.58;;
35877;SDS011;21982;49.804;24.072;2023-08-08T06:17:41;4.13;;;2.47;;
35877;SDS011;21982;49.804;24.072;2023-08-08T06:20:06;9.18;;;2.55;;
35877;SDS011;21982;49.804;24.072;2023-08-08T06:22:34;6.25;;;2.20;;
35877;SDS011;21982;49.804;24.072;2023-08-08T06:24:59;8.18;;;2.80;;
35877;SDS011;21982;49.804;24.072;2023-08-08T06:27:24;10.73;;;2.40;;
35877;SDS011;21982;49.804;24.072;2023-08-08T06:29:49;7.18;;;2.38;;
35877;SDS011;21982;49.804;24.072;2023-08-08T06:32:15;7.72;;;2.25;;
35877;SDS011;21982;49.804;24.072;2023-08-08T06:34:40;7.35;;;2.08;;
35877;SDS011;21982;49.804;24.072;2023-08-08T06:37:06;14.55;;;3.05;;
35877;SDS011;21982;49.804;24.072;2023-08-08T06:39:31;6.30;;;2.03;;
35877;SDS011;21982;49.804;24.072;2023-08-08T06:47:08;4.28;;;2.13;;
35877;SDS011;21982;49.804;24.072;2023-08-08T06:49:34;14.15;;;3.67;;
35877;SDS011;21982;49.804;24.072;2023-08-08T06:51:59;22.88;;;5.18;;
35877;SDS011;21982;49.804;24.072;2023-08-08T06:54:25;19.25;;;4.30;;
35877;SDS011;21982;49.804;24.072;2023-08-08T06:56:53;29.17;;;5.47;;
35877;SDS011;21982;49.804;24.072;2023-08-08T06:59:18;48.10;;;9.38;;
35877;SDS011;21982;49.804;24.072;2023-08-08T07:01:44;27.83;;;6.97;;
35877;SDS011;21982;49.804;24.072;2023-08-08T07:04:09;17.10;;;4.25;;
35877;SDS011;21982;49.804;24.072;2023-08-08T07:06:35;7.22;;;1.75;;
35877;SDS011;21982;49.804;24.072;2023-08-08T07:09:01;9.30;;;2.03;;
35877;SDS011;21982;49.804;24.072;2023-08-08T07:11:26;10.85;;;2.30;;
35877;SDS011;21982;49.804;24.072;2023-08-08T07:13:52;9.95;;;2.22;;
35877;SDS011;21982;49.804;24.072;2023-08-08T07:16:20;9.50;;;2.20;;
35877;SDS011;21982;49.804;24.072;2023-08-08T07:18:46;28.50;;;3.00;;
35877;SDS011;21982;49.804;24.072;2023-08-08T07:21:11;7.80;;;2.65;;
35877;SDS011;21982;49.804;24.072;2023-08-08T07:23:36;12.68;;;2.95;;
35877;SDS011;21982;49.804;24.072;2023-08-08T07:26:02;8.93;;;2.58;;
35877;SDS011;21982;49.804;24.072;2023-08-08T07:28:27;6.68;;;1.80;;
35877;SDS011;21982;49.804;24.072;2023-08-08T07:30:52;6.88;;;1.50;;
35877;SDS011;21982;49.804;24.072;2023-08-08T07:33:18;12.93;;;2.10;;
35877;SDS011;21982;49.804;24.072;2023-08-08T07:35:43;8.75;;;2.92;;
35877;SDS011;21982;49.804;24.072;2023-08-08T07:38:08;6.72;;;2.13;;
35877;SDS011;21982;49.804;24.072;2023-08-08T07:40:34;1.80;;;0.93;;
35877;SDS011;21982;49.804;24.072;2023-08-08T07:42:59;5.18;;;1.50;;
35877;SDS011;21982;49.804;24.072;2023-08-08T07:45:24;6.65;;;1.77;;
35877;SDS011;21982;49.804;24.072;2023-08-08T07:47:50;4.55;;;1.52;;
35877;SDS011;21982;49.804;24.072;2023-08-08T07:50:15;4.28;;;1.88;;
35877;SDS011;21982;49.804;24.072;2023-08-08T07:52:40;6.28;;;1.67;;
35877;SDS011;21982;49.804;24.072;2023-08-08T07:55:06;7.20;;;1.83;;
35877;SDS011;21982;49.804;24.072;2023-08-08T07:57:32;7.13;;;1.83;;
35877;SDS011;21982;49.804;24.072;2023-08-08T08:00:01;7.70;;;1.45;;
35877;SDS011;21982;49.804;24.072;2023-08-08T08:02:36;5.35;;;1.65;;
35877;SDS011;21982;49.804;24.072;2023-08-08T08:05:02;7.18;;;1.25;;
35877;SDS011;21982;49.804;24.072;2023-08-08T08:07:30;6.70;;;1.92;;
35877;SDS011;21982;49.804;24.072;2023-08-08T08:09:57;5.65;;;1.50;;
35877;SDS011;21982;49.804;24.072;2023-08-08T08:12:22;2.88;;;1.25;;
35877;SDS011;21982;49.804;24.072;2023-08-08T08:14:47;7.32;;;1.30;;
35877;SDS011;21982;49.804;24.072;2023-08-08T08:17:13;6.07;;;2.05;;
35877;SDS011;21982;49.804;24.072;2023-08-08T08:19:38;5.32;;;1.65;;
35877;SDS011;21982;49.804;24.072;2023-08-08T08:22:03;8.88;;;2.33;;
35877;SDS011;21982;49.804;24.072;2023-08-08T08:24:29;6.20;;;1.60;;
35877;SDS011;21982;49.804;24.072;2023-08-08T08:26:55;8.50;;;1.67;;
35877;SDS011;21982;49.804;24.072;2023-08-08T08:29:21;6.70;;;1.58;;
35877;SDS011;21982;49.804;24.072;2023-08-08T08:31:47;5.55;;;1.33;;
35877;SDS011;21982;49.804;24.072;2023-08-08T08:34:12;4.70;;;1.45;;
35877;SDS011;21982;49.804;24.072;2023-08-08T08:36:37;7.68;;;1.80;;
35877;SDS011;21982;49.804;24.072;2023-08-08T08:39:03;8.95;;;1.50;;
35877;SDS011;21982;49.804;24.072;2023-08-08T08:41:28;9.27;;;2.35;;
35877;SDS011;21982;49.804;24.072;2023-08-08T08:43:56;5.32;;;1.42;;
35877;SDS011;21982;49.804;24.072;2023-08-08T08:46:22;2.75;;;1.10;;
35877;SDS011;21982;49.804;24.072;2023-08-08T08:48:53;3.70;;;1.13;;
35877;SDS011;21982;49.804;24.072;2023-08-08T08:51:24;7.85;;;1.58;;
35877;SDS011;21982;49.804;24.072;2023-08-08T08:53:50;5.30;;;2.17;;
35877;SDS011;21982;49.804;24.072;2023-08-08T08:56:15;5.13;;;1.40;;
35877;SDS011;21982;49.804;24.072;2023-08-08T08:58:42;5.32;;;1.92;;
35877;SDS011;21982;49.804;24.072;2023-08-08T09:01:11;4.78;;;1.30;;
35877;SDS011;21982;49.804;24.072;2023-08-08T09:03:36;8.40;;;1.25;;
35877;SDS011;21982;49.804;24.072;2023-08-08T09:06:03;4.60;;;1.20;;
35877;SDS011;21982;49.804;24.072;2023-08-08T09:08:30;5.22;;;1.60;;
35877;SDS011;21982;49.804;24.072;2023-08-08T09:10:55;4.43;;;1.45;;
35877;SDS011;21982;49.804;24.072;2023-08-08T09:13:24;3.05;;;0.90;;
35877;SDS011;21982;49.804;24.072;2023-08-08T09:15:52;5.45;;;1.33;;
35877;SDS011;21982;49.804;24.072;2023-08-08T09:18:18;6.85;;;1.15;;
35877;SDS011;21982;49.804;24.072;2023-08-08T09:20:49;3.92;;;1.92;;
35877;SDS011;21982;49.804;24.072;2023-08-08T09:23:15;6.57;;;2.20;;
35877;SDS011;21982;49.804;24.072;2023-08-08T09:25:40;6.85;;;1.55;;
35877;SDS011;21982;49.804;24.072;2023-08-08T09:28:06;5.93;;;2.00;;
35877;SDS011;21982;49.804;24.072;2023-08-08T09:33:08;5.35;;;1.30;;
35877;SDS011;21982;49.804;24.072;2023-08-08T09:35:33;6.45;;;0.90;;
35877;SDS011;21982;49.804;24.072;2023-08-08T09:37:59;4.15;;;0.90;;
35877;SDS011;21982;49.804;24.072;2023-08-08T09:40:25;2.17;;;1.10;;
35877;SDS011;21982;49.804;24.072;2023-08-08T09:42:51;2.30;;;1.08;;
35877;SDS011;21982;49.804;24.072;2023-08-08T09:45:17;5.53;;;1.30;;
35877;SDS011;21982;49.804;24.072;2023-08-08T09:47:43;2.80;;;1.00;;
35877;SDS011;21982;49.804;24.072;2023-08-08T09:50:08;6.60;;;1.10;;
35877;SDS011;21982;49.804;24.072;2023-08-08T09:52:34;10.38;;;1.50;;
35877;SDS011;21982;49.804;24.072;2023-08-08T09:55:00;3.10;;;0.95;;
35877;SDS011;21982;49.804;24.072;2023-08-08T09:57:27;2.65;;;1.27;;
35877;SDS011;21982;49.804;24.072;2023-08-08T09:59:53;3.92;;;1.13;;
35877;SDS011;21982;49.804;24.072;2023-08-08T10:02:20;3.33;;;0.98;;
35877;SDS011;21982;49.804;24.072;2023-08-08T10:04:46;2.80;;;1.10;;
35877;SDS011;21982;49.804;24.072;2023-08-08T10:07:12;2.58;;;0.90;;
35877;SDS011;21982;49.804;24.072;2023-08-08T10:09:37;2.85;;;0.80;;
35877;SDS011;21982;49.804;24.072;2023-08-08T10:12:04;5.93;;;1.10;;
35877;SDS011;21982;49.804;24.072;2023-08-08T10:14:32;3.30;;;0.93;;
35877;SDS011;21982;49.804;24.072;2023-08-08T10:17:01;3.10;;;1.23;;
35877;SDS011;21982;49.804;24.072;2023-08-08T10:19:27;3.85;;;1.20;;
35877;SDS011;21982;49.804;24.072;2023-08-08T10:21:58;3.15;;;1.05;;
35877;SDS011;21982;49.804;24.072;2023-08-08T10:24:36;2.83;;;1.05;;
35877;SDS011;21982;49.804;24.072;2023-08-08T10:27:03;2.78;;;1.02;;
35877;SDS011;21982;49.804;24.072;2023-08-08T10:29:29;3.28;;;1.10;;
35877;SDS011;21982;49.804;24.072;2023-08-08T10:32:04;4.15;;;1.15;;
35877;SDS011;21982;49.804;24.072;2023-08-08T10:34:38;3.95;;;1.38;;
35877;SDS011;21982;49.804;24.072;2023-08-08T10:37:10;4.00;;;1.05;;
35877;SDS011;21982;49.804;24.072;2023-08-08T10:39:53;3.92;;;1.08;;
35877;SDS011;21982;49.804;24.072;2023-08-08T10:42:31;1.98;;;0.75;;
35877;SDS011;21982;49.804;24.072;2023-08-08T10:44:59;3.53;;;1.00;;
35877;SDS011;21982;49.804;24.072;2023-08-08T10:47:26;5.97;;;1.23;;
35877;SDS011;21982;49.804;24.072;2023-08-08T10:52:32;3.42;;;1.10;;
35877;SDS011;21982;49.804;24.072;2023-08-08T10:55:05;6.35;;;1.27;;
35877;SDS011;21982;49.804;24.072;2023-08-08T10:57:42;5.22;;;1.05;;
35877;SDS011;21982;49.804;24.072;2023-08-08T11:00:17;2.75;;;1.45;;
35877;SDS011;21982;49.804;24.072;2023-08-08T11:02:45;3.75;;;1.25;;
35877;SDS011;21982;49.804;24.072;2023-08-08T11:05:11;4.25;;;1.00;;
35877;SDS011;21982;49.804;24.072;2023-08-08T11:07:37;3.72;;;1.17;;
35877;SDS011;21982;49.804;24.072;2023-08-08T11:10:03;8.23;;;1.52;;
35877;SDS011;21982;49.804;24.072;2023-08-08T11:12:29;5.53;;;1.30;;
35877;SDS011;21982;49.804;24.072;2023-08-08T11:14:54;3.80;;;0.80;;
35877;SDS011;21982;49.804;24.072;2023-08-08T11:17:20;3.50;;;0.90;;
35877;SDS011;21982;49.804;24.072;2023-08-08T11:19:45;5.85;;;1.05;;
35877;SDS011;21982;49.804;24.072;2023-08-08T11:22:11;2.90;;;0.93;;
35877;SDS011;21982;49.804;24.072;2023-08-08T11:24:36;3.58;;;1.10;;
35877;SDS011;21982;49.804;24.072;2023-08-08T11:27:02;5.60;;;1.08;;
35877;SDS011;21982;49.804;24.072;2023-08-08T11:29:27;3.50;;;0.70;;
35877;SDS011;21982;49.804;24.072;2023-08-08T11:31:56;1.70;;;0.90;;
35877;SDS011;21982;49.804;24.072;2023-08-08T11:34:22;3.13;;;1.10;;
35877;SDS011;21982;49.804;24.072;2023-08-08T11:36:47;2.55;;;1.20;;
35877;SDS011;21982;49.804;24.072;2023-08-08T11:39:13;6.70;;;1.80;;
35877;SDS011;21982;49.804;24.072;2023-08-08T11:41:40;7.53;;;1.55;;
35877;SDS011;21982;49.804;24.072;2023-08-08T11:44:06;3.33;;;1.15;;
35877;SDS011;21982;49.804;24.072;2023-08-08T11:46:33;4.20;;;1.10;;
35877;SDS011;21982;49.804;24.072;2023-08-08T11:49:02;3.33;;;1.30;;
35877;SDS011;21982;49.804;24.072;2023-08-08T11:51:31;2.28;;;0.80;;
35877;SDS011;21982;49.804;24.072;2023-08-08T11:54:00;2.55;;;1.00;;
35877;SDS011;21982;49.804;24.072;2023-08-08T11:56:27;2.50;;;0.77;;
35877;SDS011;21982;49.804;24.072;2023-08-08T11:58:54;5.72;;;2.00;;
35877;SDS011;21982;49.804;24.072;2023-08-08T12:01:24;5.07;;;0.95;;
35877;SDS011;21982;49.804;24.072;2023-08-08T12:03:50;5.97;;;1.48;;
35877;SDS011;21982;49.804;24.072;2023-08-08T12:06:18;3.10;;;0.90;;
35877;SDS011;21982;49.804;24.072;2023-08-08T12:08:45;5.88;;;1.17;;
35877;SDS011;21982;49.804;24.072;2023-08-08T12:11:12;4.32;;;0.98;;
35877;SDS011;21982;49.804;24.072;2023-08-08T12:13:38;2.10;;;0.90;;
35877;SDS011;21982;49.804;24.072;2023-08-08T12:16:06;2.72;;;0.95;;
35877;SDS011;21982;49.804;24.072;2023-08-08T12:18:35;3.03;;;1.00;;
35877;SDS011;21982;49.804;24.072;2023-08-08T12:21:02;2.50;;;1.00;;
35877;SDS011;21982;49.804;24.072;2023-08-08T12:23:42;2.50;;;0.80;;
35877;SDS011;21982;49.804;24.072;2023-08-08T12:26:13;2.97;;;0.90;;
35877;SDS011;21982;49.804;24.072;2023-08-08T12:28:40;4.10;;;1.15;;
35877;SDS011;21982;49.804;24.072;2023-08-08T12:31:06;2.63;;;0.90;;
35877;SDS011;21982;49.804;24.072;2023-08-08T12:33:31;3.88;;;0.90;;
35877;SDS011;21982;49.804;24.072;2023-08-08T12:35:56;2.42;;;0.82;;
35877;SDS011;21982;49.804;24.072;2023-08-08T12:38:22;3.42;;;1.02;;
35877;SDS011;21982;49.804;24.072;2023-08-08T12:40:48;3.08;;;0.85;;
35877;SDS011;21982;49.804;24.072;2023-08-08T12:43:13;4.15;;;1.33;;
35877;SDS011;21982;49.804;24.072;2023-08-08T12:45:42;2.30;;;1.05;;
35877;SDS011;21982;49.804;24.072;2023-08-08T13:11:27;2.72;;;0.88;;
35877;SDS011;21982;49.804;24.072;2023-08-08T13:13:53;5.55;;;0.95;;
35877;SDS011;21982;49.804;24.072;2023-08-08T13:16:18;3.15;;;0.90;;
35877;SDS011;21982;49.804;24.072;2023-08-08T13:18:44;2.80;;;1.13;;
35877;SDS011;21982;49.804;24.072;2023-08-08T13:21:09;7.25;;;1.67;;
35877;SDS011;21982;49.804;24.072;2023-08-08T13:23:37;4.90;;;1.00;;
35877;SDS011;21982;49.804;24.072;2023-08-08T13:26:03;4.55;;;1.33;;
35877;SDS011;21982;49.804;24.072;2023-08-08T13:33:39;5.57;;;1.60;;
35877;SDS011;21982;49.804;24.072;2023-08-08T13:36:05;4.93;;;0.80;;
35877;SDS011;21982;49.804;24.072;2023-08-08T13:41:07;3.65;;;0.80;;
35877;SDS011;21982;49.804;24.072;2023-08-08T13:43:33;3.33;;;0.90;;
35877;SDS011;21982;49.804;24.072;2023-08-08T13:45:59;6.72;;;1.45;;
35877;SDS011;21982;49.804;24.072;2023-08-08T13:48:25;5.72;;;1.45;;
35877;SDS011;21982;49.804;24.072;2023-08-08T13:50:50;4.50;;;1.60;;
35877;SDS011;21982;49.804;24.072;2023-08-08T13:53:17;5.18;;;0.95;;
35877;SDS011;21982;49.804;24.072;2023-08-08T13:55:43;4.65;;;1.55;;
35877;SDS011;21982;49.804;24.072;2023-08-08T13:58:09;2.53;;;1.10;;
35877;SDS011;21982;49.804;24.072;2023-08-08T14:00:35;4.47;;;1.58;;
35877;SDS011;21982;49.804;24.072;2023-08-08T14:03:01;5.20;;;1.17;;
35877;SDS011;21982;49.804;24.072;2023-08-08T14:05:27;4.18;;;1.25;;
35877;SDS011;21982;49.804;24.072;2023-08-08T14:07:54;3.15;;;0.95;;
35877;SDS011;21982;49.804;24.072;2023-08-08T14:10:19;3.28;;;1.02;;
35877;SDS011;21982;49.804;24.072;2023-08-08T14:12:46;1.88;;;0.60;;
35877;SDS011;21982;49.804;24.072;2023-08-08T14:15:12;3.17;;;1.00;;
35877;SDS011;21982;49.804;24.072;2023-08-08T14:17:37;2.65;;;0.90;;
35877;SDS011;21982;49.804;24.072;2023-08-08T14:20:03;5.07;;;1.00;;
35877;SDS011;21982;49.804;24.072;2023-08-08T14:22:29;1.98;;;0.90;;
35877;SDS011;21982;49.804;24.072;2023-08-08T14:24:55;4.20;;;1.23;;
35877;SDS011;21982;49.804;24.072;2023-08-08T14:27:20;3.67;;;1.17;;
35877;SDS011;21982;49.804;24.072;2023-08-08T14:29:46;1.35;;;0.63;;
35877;SDS011;21982;49.804;24.072;2023-08-08T14:32:11;2.42;;;0.80;;
35877;SDS011;21982;49.804;24.072;2023-08-08T14:34:37;2.78;;;0.90;;
35877;SDS011;21982;49.804;24.072;2023-08-08T14:37:03;2.47;;;0.77;;
35877;SDS011;21982;49.804;24.072;2023-08-08T14:39:28;1.88;;;0.85;;
35877;SDS011;21982;49.804;24.072;2023-08-08T14:41:55;2.28;;;0.75;;
35877;SDS011;21982;49.804;24.072;2023-08-08T14:44:21;2.13;;;0.70;;
35877;SDS011;21982;49.804;24.072;2023-08-08T14:46:47;3.83;;;1.20;;
35877;SDS011;21982;49.804;24.072;2023-08-08T14:49:12;3.50;;;1.17;;
35877;SDS011;21982;49.804;24.072;2023-08-08T14:51:38;3.30;;;1.00;;
35877;SDS011;21982;49.804;24.072;2023-08-08T14:54:03;2.03;;;0.70;;
35877;SDS011;21982;49.804;24.072;2023-08-08T14:56:29;2.35;;;0.75;;
35877;SDS011;21982;49.804;24.072;2023-08-08T14:58:54;2.63;;;1.00;;
35877;SDS011;21982;49.804;24.072;2023-08-08T15:01:20;2.97;;;0.90;;
35877;SDS011;21982;49.804;24.072;2023-08-08T15:03:45;1.80;;;0.90;;
35877;SDS011;21982;49.804;24.072;2023-08-08T15:06:11;5.00;;;0.93;;
35877;SDS011;21982;49.804;24.072;2023-08-08T15:08:37;2.40;;;1.20;;
35877;SDS011;21982;49.804;24.072;2023-08-08T15:11:02;3.53;;;1.60;;
35877;SDS011;21982;49.804;24.072;2023-08-08T15:13:27;3.30;;;1.55;;
35877;SDS011;21982;49.804;24.072;2023-08-08T15:15:53;4.80;;;1.45;;
35877;SDS011;21982;49.804;24.072;2023-08-08T15:18:18;4.70;;;1.73;;